Time;durP1;ratioP1;P1;durP2;ratioP2;P2;SDS_P1;SDS_P2;PMS_P1;PMS_P2;Temp;Humidity;BMP_temperature;BMP_pressure;BME280_temperature;BME280_humidity;BME280_pressure;Samples;Min_cycle;Max_cycle;Signal;HPM_P1;HPM_P2
2021/09/26 00:00:20;;;;;;;;;18.25;17.00;;;;;24.12;50.88;100999.13;5030211;28;51268;-60
2021/09/26 00:02:45;;;;;;;;;15.50;15.50;;;;;24.10;50.76;100995.75;5014475;28;51122;-59
2021/09/26 00:05:12;;;;;;;;;17.25;17.25;;;;;24.09;50.75;100989.38;5029770;28;50987;-60
2021/09/26 00:07:37;;;;;;;;;20.25;17.25;;;;;24.08;50.86;100984.94;5025735;28;51229;-60
2021/09/26 00:10:06;;;;;;;;;17.00;15.00;;;;;24.05;50.56;100985.41;5023410;28;51099;-61
2021/09/26 00:12:32;;;;;;;;;16.00;15.00;;;;;24.04;51.18;100989.25;5015944;28;51923;-60
2021/09/26 00:14:57;;;;;;;;;18.75;16.50;;;;;24.04;50.82;101005.00;5030944;28;51128;-63
2021/09/26 00:17:23;;;;;;;;;16.50;14.50;;;;;24.02;50.44;101002.50;5020149;28;51499;-61
2021/09/26 00:19:49;;;;;;;;;18.75;15.75;;;;;24.00;51.02;101009.38;5020202;28;51417;-60
2021/09/26 00:22:14;;;;;;;;;16.75;16.25;;;;;23.98;50.77;101004.06;5028171;28;53397;-60
2021/09/26 00:24:40;;;;;;;;;13.00;12.50;;;;;23.98;51.13;101006.84;5018804;28;51294;-60
2021/09/26 00:27:09;;;;;;;;;14.00;13.50;;;;;23.96;50.89;100997.06;5028979;28;51105;-61
2021/09/26 00:29:34;;;;;;;;;15.00;14.50;;;;;23.96;50.99;101003.44;5016188;28;51374;-60
2021/09/26 00:32:00;;;;;;;;;13.50;12.50;;;;;23.95;51.16;100996.25;5029363;28;51199;-61
2021/09/26 00:34:25;;;;;;;;;14.75;14.75;;;;;23.96;50.67;101010.91;5033461;28;50960;-60
2021/09/26 00:36:51;;;;;;;;;13.50;13.50;;;;;23.94;51.20;101016.69;5031893;28;51130;-60
2021/09/26 00:39:16;;;;;;;;;19.25;16.00;;;;;23.94;50.59;101025.00;5020048;28;52177;-60
2021/09/26 00:41:42;;;;;;;;;15.50;14.00;;;;;23.94;50.98;101032.44;5023954;28;50952;-61
2021/09/26 00:44:07;;;;;;;;;18.75;16.25;;;;;23.92;51.07;101032.69;5034433;28;51066;-59
2021/09/26 00:46:32;;;;;;;;;16.25;15.25;;;;;23.91;51.05;101033.78;5033922;28;51535;-59
2021/09/26 00:48:58;;;;;;;;;13.75;13.00;;;;;23.90;50.61;101029.34;5021509;28;51299;-61
2021/09/26 00:51:23;;;;;;;;;14.25;14.00;;;;;23.89;50.99;101031.25;5021016;28;51144;-60
2021/09/26 00:53:48;;;;;;;;;17.00;15.25;;;;;23.88;50.74;101026.81;5033610;28;51294;-59
2021/09/26 00:56:14;;;;;;;;;16.75;15.50;;;;;23.86;50.87;101020.69;5033810;28;51052;-60
2021/09/26 00:58:40;;;;;;;;;15.25;13.50;;;;;23.86;50.95;101025.34;5028916;28;51132;-59
2021/09/26 01:01:05;;;;;;;;;16.00;15.25;;;;;23.86;50.56;101025.34;5016225;28;51016;-60
2021/09/26 01:03:31;;;;;;;;;15.25;14.00;;;;;23.85;50.85;101018.97;5032857;28;51183;-59
2021/09/26 01:06:34;;;;;;;;;17.00;15.00;;;;;23.85;50.64;101018.13;5023930;28;51399;-59
2021/09/26 01:09:29;;;;;;;;;15.75;15.25;;;;;23.84;51.18;101021.97;5019033;28;51016;-59
2021/09/26 01:12:03;;;;;;;;;18.50;15.50;;;;;23.83;50.94;101026.69;5017345;28;51164;-60
2021/09/26 01:14:40;;;;;;;;;16.50;13.75;;;;;23.82;51.11;101029.69;5027500;28;51453;-60
2021/09/26 01:17:36;;;;;;;;;15.25;12.50;;;;;23.82;50.77;101027.75;5026807;28;51333;-60
2021/09/26 01:20:28;;;;;;;;;12.25;12.25;;;;;23.81;50.88;101033.53;5021914;28;51184;-61
2021/09/26 01:23:16;;;;;;;;;10.75;10.75;;;;;23.80;50.68;101029.94;5022621;28;51583;-60
2021/09/26 01:26:10;;;;;;;;;13.50;12.00;;;;;23.78;51.05;101032.09;5022724;28;51044;-61
2021/09/26 01:28:35;;;;;;;;;16.75;15.75;;;;;23.77;50.78;101038.72;5027300;28;51167;-60
2021/09/26 01:31:14;;;;;;;;;13.00;12.33;;;;;23.77;50.97;101047.03;5026357;28;51195;-60
2021/09/26 01:33:52;;;;;;;;;14.25;12.25;;;;;23.76;50.94;101047.22;5031848;28;51051;-60
2021/09/26 01:36:37;;;;;;;;;15.75;14.50;;;;;23.73;51.32;101054.09;5027393;28;51049;-61
2021/09/26 01:39:07;;;;;;;;;13.75;12.25;;;;;23.73;51.06;101062.38;5027360;28;51223;-60
2021/09/26 01:41:43;;;;;;;;;12.75;11.00;;;;;23.71;51.14;101063.72;5018045;28;51110;-61
2021/09/26 01:44:24;;;;;;;;;13.50;12.75;;;;;23.70;50.63;101048.22;5016355;28;51950;-60
2021/09/26 01:46:54;;;;;;;;;13.75;12.00;;;;;23.68;50.92;101050.38;5029123;28;51140;-60
2021/09/26 01:49:26;;;;;;;;;14.50;12.00;;;;;23.68;51.17;101050.38;5036385;28;51109;-61
2021/09/26 01:51:53;;;;;;;;;11.00;10.50;;;;;23.66;50.77;101047.00;5031526;28;51393;-61
2021/09/26 01:54:20;;;;;;;;;10.00;9.00;;;;;23.66;50.74;101041.47;5021264;28;52001;-61
2021/09/26 01:56:47;;;;;;;;;11.50;11.50;;;;;23.65;51.18;101037.00;5025100;28;51227;-61
2021/09/26 01:59:14;;;;;;;;;12.00;12.00;;;;;23.65;50.82;101039.78;5033478;28;51056;-60
2021/09/26 02:01:40;;;;;;;;;12.00;12.00;;;;;23.65;51.26;101039.78;5033981;28;51002;-60
2021/09/26 02:04:06;;;;;;;;;10.25;10.00;;;;;23.64;50.73;101038.09;5023737;28;52017;-60
2021/09/26 02:06:36;;;;;;;;;11.50;9.75;;;;;23.63;50.99;101048.31;5029084;28;51061;-60
2021/09/26 02:09:02;;;;;;;;;8.00;8.00;;;;;23.62;50.81;101038.31;5032664;28;51124;-60
2021/09/26 02:11:28;;;;;;;;;10.75;10.00;;;;;23.61;50.82;101044.94;5017356;28;51195;-61
2021/09/26 02:13:55;;;;;;;;;13.00;10.25;;;;;23.60;51.09;101035.81;5030000;28;51969;-61
2021/09/26 02:16:22;;;;;;;;;11.00;9.75;;;;;23.59;51.13;101036.91;5032249;28;52690;-60
2021/09/26 02:18:48;;;;;;;;;12.00;10.25;;;;;23.58;51.16;101034.34;5008311;28;52271;-61
2021/09/26 02:21:15;;;;;;;;;9.00;8.25;;;;;23.57;51.09;101027.13;5033180;28;51033;-60
2021/09/26 02:23:41;;;;;;;;;11.50;11.00;;;;;23.56;51.53;101031.81;5034599;28;51152;-60
2021/09/26 02:26:07;;;;;;;;;10.00;10.00;;;;;23.57;51.06;101040.94;5033077;28;51143;-61
2021/09/26 02:28:33;;;;;;;;;10.50;9.00;;;;;23.55;51.25;101045.84;5021466;28;51424;-60
2021/09/26 02:31:02;;;;;;;;;11.75;10.75;;;;;23.54;51.48;101046.94;5021351;28;51119;-60
2021/09/26 02:33:28;;;;;;;;;14.25;11.75;;;;;23.52;51.57;101027.81;5033439;28;51975;-59
2021/09/26 02:35:53;;;;;;;;;16.00;12.50;;;;;23.52;51.49;101035.28;5030131;28;51164;-60
2021/09/26 02:38:18;;;;;;;;;14.00;13.00;;;;;23.51;51.55;101034.44;5016697;28;51069;-61
2021/09/26 02:40:53;;;;;;;;;12.00;12.00;;;;;23.50;51.38;101032.75;5029642;28;51128;-61
2021/09/26 02:44:02;;;;;;;;;10.00;10.00;;;;;23.49;51.67;101028.31;5016907;28;51309;-60
2021/09/26 02:46:34;;;;;;;;;15.00;12.00;;;;;23.48;51.43;101021.09;5029666;28;51052;-60
2021/09/26 02:49:00;;;;;;;;;12.50;11.00;;;;;23.48;51.71;101017.50;5032657;28;51167;-60
2021/09/26 02:51:26;;;;;;;;;12.00;12.00;;;;;23.47;51.78;101016.66;5023628;28;51540;-60
2021/09/26 02:53:53;;;;;;;;;12.75;10.00;;;;;23.46;51.22;101028.78;5035324;28;51360;-61
2021/09/26 02:56:19;;;;;;;;;13.25;11.75;;;;;23.47;51.60;101026.88;5030363;28;51119;-60
2021/09/26 02:58:45;;;;;;;;;11.00;11.00;;;;;23.45;51.65;101018.81;5028681;28;51211;-60
2021/09/26 03:01:10;;;;;;;;;9.75;9.25;;;;;23.46;51.35;101023.25;5029354;28;51440;-60
2021/09/26 03:03:36;;;;;;;;;9.50;8.50;;;;;23.45;51.66;101017.97;5021414;28;51037;-60
2021/09/26 03:06:02;;;;;;;;;10.25;10.25;;;;;23.44;51.12;101008.81;5030052;28;51020;-62
2021/09/26 03:08:27;;;;;;;;;11.00;10.50;;;;;23.45;51.49;101009.69;5017962;28;51293;-60
2021/09/26 03:10:56;;;;;;;;;12.00;10.00;;;;;23.44;51.44;101011.56;5021732;28;51235;-60
2021/09/26 03:13:22;;;;;;;;;12.25;11.00;;;;;23.44;51.57;101006.06;5033833;28;51060;-60
2021/09/26 03:15:47;;;;;;;;;9.75;9.25;;;;;23.44;51.03;101003.28;5031729;28;51036;-59
2021/09/26 03:18:13;;;;;;;;;10.00;9.75;;;;;23.43;51.44;101001.59;5020160;28;51152;-60
2021/09/26 03:20:38;;;;;;;;;14.50;14.00;;;;;23.44;51.36;100995.00;5025412;28;50983;-61
2021/09/26 03:23:04;;;;;;;;;13.50;11.00;;;;;23.43;51.22;100992.47;5031305;28;51731;-61
2021/09/26 03:25:29;;;;;;;;;12.75;12.25;;;;;23.43;51.07;100990.53;5029105;28;51198;-60
2021/09/26 03:27:55;;;;;;;;;9.00;8.50;;;;;23.43;51.53;100975.88;5033135;28;51195;-61
2021/09/26 03:30:21;;;;;;;;;12.50;11.25;;;;;23.42;50.99;100980.56;5034381;28;51175;-61
2021/09/26 03:32:47;;;;;;;;;14.00;11.25;;;;;23.42;51.27;100965.91;5033711;28;51109;-60
2021/09/26 03:35:14;;;;;;;;;11.00;11.00;;;;;23.41;51.50;100972.53;5033956;28;51064;-60
2021/09/26 03:37:39;;;;;;;;;12.50;12.25;;;;;23.41;51.01;100989.09;5019744;28;51069;-62
2021/09/26 03:40:06;;;;;;;;;16.50;12.00;;;;;23.40;51.62;100988.25;5021679;28;51458;-60
2021/09/26 03:42:32;;;;;;;;;10.25;9.50;;;;;23.39;51.18;100992.13;5033234;28;52787;-61
2021/09/26 03:44:57;;;;;;;;;14.25;13.00;;;;;23.38;51.55;100990.44;5032469;28;51234;-59
2021/09/26 03:47:23;;;;;;;;;12.00;12.00;;;;;23.37;51.49;100987.91;5023093;28;51143;-61
2021/09/26 03:49:48;;;;;;;;;13.00;11.25;;;;;23.37;51.76;100987.91;5026354;28;51175;-60
2021/09/26 03:52:14;;;;;;;;;16.00;10.25;;;;;23.36;51.62;100991.75;5022601;28;51291;-61
2021/09/26 03:54:39;;;;;;;;;13.00;12.00;;;;;23.35;51.47;100984.56;5016111;28;51087;-60
2021/09/26 03:57:05;;;;;;;;;11.00;9.75;;;;;23.34;51.34;100983.69;5025098;28;51342;-61
2021/09/26 03:59:31;;;;;;;;;10.75;10.00;;;;;23.32;51.65;100983.91;5033929;28;51017;-60
2021/09/26 04:01:56;;;;;;;;;10.50;9.50;;;;;23.32;51.62;100977.56;5027597;28;51245;-60
2021/09/26 04:04:21;;;;;;;;;12.00;9.75;;;;;23.31;51.95;100979.47;5034501;28;51367;-61
2021/09/26 04:06:47;;;;;;;;;11.50;11.00;;;;;23.30;51.71;100979.72;5024736;28;51087;-60
2021/09/26 04:09:13;;;;;;;;;13.75;10.75;;;;;23.29;51.45;100975.28;5015908;28;51349;-61
2021/09/26 04:11:38;;;;;;;;;9.25;9.25;;;;;23.29;51.90;100983.56;5019568;28;51702;-61
2021/09/26 04:14:05;;;;;;;;;10.25;7.50;;;;;23.29;51.52;100972.50;5025762;28;51355;-59
2021/09/26 04:16:31;;;;;;;;;11.25;9.75;;;;;23.28;51.50;100968.06;5030473;28;51316;-61
2021/09/26 04:18:57;;;;;;;;;11.75;10.00;;;;;23.27;51.42;100972.75;5033335;28;51128;-59
2021/09/26 04:21:23;;;;;;;;;12.75;12.75;;;;;23.26;51.53;100973.84;5032943;28;51253;-60
2021/09/26 04:23:49;;;;;;;;;10.50;9.00;;;;;23.27;51.55;100966.38;5034147;28;51418;-59
2021/09/26 04:26:14;;;;;;;;;11.00;11.00;;;;;23.26;51.40;100960.00;5029598;28;51215;-60
2021/09/26 04:28:41;;;;;;;;;12.25;8.75;;;;;23.25;51.81;100968.53;5029364;28;51046;-60
2021/09/26 04:31:06;;;;;;;;;11.75;10.00;;;;;23.24;51.94;100962.19;5028145;28;52056;-61
2021/09/26 04:33:32;;;;;;;;;12.50;10.25;;;;;23.22;51.87;100969.84;5015203;28;51276;-60
2021/09/26 04:35:57;;;;;;;;;9.25;9.25;;;;;23.21;51.59;100962.63;5029790;28;51318;-60
2021/09/26 04:38:23;;;;;;;;;10.00;9.25;;;;;23.21;51.58;100959.03;5023857;28;51084;-59
2021/09/26 04:40:48;;;;;;;;;10.50;9.75;;;;;23.19;51.74;100959.28;5027568;28;51784;-61
2021/09/26 04:43:14;;;;;;;;;11.00;9.00;;;;;23.18;51.98;100946.53;5023744;28;51067;-60
2021/09/26 04:45:39;;;;;;;;;11.50;9.50;;;;;23.16;51.92;100948.69;5031826;28;51126;-61
2021/09/26 04:48:05;;;;;;;;;12.50;11.75;;;;;23.15;51.80;100952.56;5022021;28;51088;-60
2021/09/26 04:50:33;;;;;;;;;14.50;11.25;;;;;23.14;52.10;100956.41;5028684;28;51652;-60
2021/09/26 04:52:59;;;;;;;;;10.50;10.50;;;;;23.14;51.95;100956.41;5036355;28;51541;-61
2021/09/26 04:55:26;;;;;;;;;15.25;13.25;;;;;23.13;51.87;100951.91;5037393;28;51109;-61
2021/09/26 04:57:53;;;;;;;;;10.25;10.00;;;;;23.12;52.08;100957.69;5029531;28;51263;-60
2021/09/26 05:00:19;;;;;;;;;11.00;10.00;;;;;23.12;52.21;100965.97;5026764;28;53044;-60
2021/09/26 05:02:44;;;;;;;;;11.00;10.25;;;;;23.10;52.54;100965.38;5026886;28;51270;-60
2021/09/26 05:05:10;;;;;;;;;16.25;11.75;;;;;23.08;52.00;100957.34;5018901;28;51500;-60
2021/09/26 05:07:35;;;;;;;;;11.75;11.75;;;;;23.08;52.42;100973.91;5033926;28;51217;-60
2021/09/26 05:10:00;;;;;;;;;10.25;10.00;;;;;23.08;52.71;100973.06;5034180;28;51250;-60
2021/09/26 05:12:26;;;;;;;;;10.25;10.00;;;;;23.07;52.10;100983.28;5024045;28;51400;-60
2021/09/26 05:14:51;;;;;;;;;14.50;12.25;;;;;23.06;52.29;100986.28;5026186;28;51151;-62
2021/09/26 05:17:16;;;;;;;;;12.50;11.25;;;;;23.06;52.66;100991.81;5031337;28;52197;-61
2021/09/26 05:19:46;;;;;;;;;12.50;11.75;;;;;23.05;52.09;100990.97;5029541;28;52602;-60
2021/09/26 05:22:12;;;;;;;;;11.50;10.75;;;;;23.04;52.35;100989.28;5029078;28;51124;-60
2021/09/26 05:24:37;;;;;;;;;12.50;11.00;;;;;23.04;52.61;100997.56;5029159;28;51199;-60
2021/09/26 05:27:03;;;;;;;;;11.00;9.75;;;;;23.03;52.53;100998.63;5032350;28;51194;-61
2021/09/26 05:29:29;;;;;;;;;12.75;11.00;;;;;23.02;52.73;101013.53;5030921;28;53318;-60
2021/09/26 05:31:54;;;;;;;;;10.25;10.25;;;;;23.02;52.79;101016.28;5025999;28;51135;-61
2021/09/26 05:34:20;;;;;;;;;14.25;10.25;;;;;23.01;52.28;101022.88;5035858;28;51001;-60
2021/09/26 05:36:45;;;;;;;;;11.50;11.50;;;;;23.02;52.50;101030.09;5031978;28;51150;-61
2021/09/26 05:39:11;;;;;;;;;10.50;10.50;;;;;23.01;52.63;101029.25;5029538;28;51941;-60
2021/09/26 05:41:36;;;;;;;;;14.50;14.00;;;;;23.00;52.81;101027.56;5017889;28;51112;-60
2021/09/26 05:44:01;;;;;;;;;15.00;15.00;;;;;23.01;52.29;101028.41;5018956;28;51258;-60
2021/09/26 05:46:27;;;;;;;;;12.50;12.00;;;;;23.00;52.28;101029.50;5026658;28;51074;-61
2021/09/26 05:48:52;;;;;;;;;14.00;12.25;;;;;22.98;52.25;101029.72;5028058;28;51627;-60
2021/09/26 05:51:18;;;;;;;;;12.25;11.50;;;;;22.98;52.52;101024.22;5036810;28;51044;-60
2021/09/26 05:53:43;;;;;;;;;13.50;13.50;;;;;22.97;52.67;101027.22;5027601;28;51203;-60
2021/09/26 05:56:08;;;;;;;;;13.50;12.25;;;;;22.96;53.02;101040.19;5033150;28;50916;-61
2021/09/26 05:58:34;;;;;;;;;14.00;14.00;;;;;22.96;53.06;101044.88;5017850;28;51396;-60
2021/09/26 06:00:59;;;;;;;;;13.50;11.75;;;;;22.96;52.90;101053.16;5032810;28;51286;-60
2021/09/26 06:03:25;;;;;;;;;13.25;12.75;;;;;22.94;52.96;101045.09;5033825;28;51410;-60
2021/09/26 06:05:50;;;;;;;;;12.50;12.25;;;;;22.94;52.92;101060.84;5036081;28;51309;-60
2021/09/26 06:08:15;;;;;;;;;12.50;12.50;;;;;22.94;52.79;101080.19;5025082;28;51708;-61
2021/09/26 06:10:41;;;;;;;;;13.75;13.00;;;;;22.93;53.17;101070.19;5019569;28;51213;-60
2021/09/26 06:13:07;;;;;;;;;11.00;10.75;;;;;22.94;52.96;101069.97;5036428;28;51168;-61
2021/09/26 06:15:33;;;;;;;;;13.50;13.00;;;;;22.93;53.21;101071.03;5036108;28;51203;-61
2021/09/26 06:17:59;;;;;;;;;13.00;13.00;;;;;22.93;53.05;101070.19;5023215;28;52695;-61
2021/09/26 06:20:24;;;;;;;;;13.00;13.00;;;;;22.92;53.08;101072.09;5020769;28;51414;-60
2021/09/26 06:22:50;;;;;;;;;13.00;11.25;;;;;22.92;52.81;101080.38;5030928;28;51179;-61
2021/09/26 06:25:16;;;;;;;;;20.00;14.75;;;;;22.91;52.99;101077.84;5035489;28;51009;-60
2021/09/26 06:27:41;;;;;;;;;15.25;14.25;;;;;22.92;53.16;101076.78;5027008;28;51813;-61
2021/09/26 06:30:08;;;;;;;;;14.75;12.50;;;;;22.91;53.23;101064.88;5030424;28;51065;-60
2021/09/26 06:32:34;;;;;;;;;12.00;11.25;;;;;22.91;52.67;101070.41;5030543;28;51233;-60
2021/09/26 06:35:01;;;;;;;;;12.75;10.75;;;;;22.92;53.41;101074.00;5024788;28;51359;-61
2021/09/26 06:37:27;;;;;;;;;12.25;11.75;;;;;22.91;53.01;101081.47;5031274;28;51778;-61
2021/09/26 06:39:53;;;;;;;;;12.25;10.50;;;;;22.90;53.46;101088.06;5028683;28;51689;-62
2021/09/26 06:42:19;;;;;;;;;12.75;12.00;;;;;22.91;52.88;101089.75;5031535;28;51143;-61
2021/09/26 06:44:44;;;;;;;;;9.75;9.25;;;;;22.91;52.78;101088.91;5036456;28;51046;-61
2021/09/26 06:47:09;;;;;;;;;11.75;11.75;;;;;22.92;52.96;101091.44;5022613;28;50954;-63
2021/09/26 06:49:35;;;;;;;;;13.00;11.00;;;;;22.93;53.51;101087.63;5024562;28;50973;-64
2021/09/26 06:52:00;;;;;;;;;14.00;11.00;;;;;22.94;53.15;101099.50;5029791;28;51092;-62
2021/09/26 06:54:25;;;;;;;;;11.25;10.25;;;;;22.95;53.73;101103.97;5033626;28;51120;-62
2021/09/26 06:56:51;;;;;;;;;12.50;9.00;;;;;22.95;53.97;101107.56;5026346;28;51023;-63
2021/09/26 06:59:16;;;;;;;;;14.00;10.25;;;;;22.96;53.81;101109.25;5028983;28;51005;-64
2021/09/26 07:01:41;;;;;;;;;10.50;10.50;;;;;22.98;53.55;101100.72;5033200;28;51167;-65
2021/09/26 07:04:07;;;;;;;;;13.25;12.00;;;;;22.99;53.92;101097.72;5035275;28;51084;-61
2021/09/26 07:06:32;;;;;;;;;10.00;10.00;;;;;23.01;54.23;101097.47;5023404;28;51045;-61
2021/09/26 07:08:58;;;;;;;;;10.75;10.00;;;;;23.02;53.50;101107.44;5025778;28;51106;-62
2021/09/26 07:11:23;;;;;;;;;13.25;10.25;;;;;23.03;53.53;101120.19;5023069;28;51515;-61
2021/09/26 07:13:49;;;;;;;;;8.50;8.50;;;;;23.03;53.81;101115.53;5024200;28;51091;-60
2021/09/26 07:16:14;;;;;;;;;10.25;10.25;;;;;23.04;53.77;101128.28;5025870;28;51204;-59
2021/09/26 07:18:39;;;;;;;;;11.25;10.25;;;;;23.07;53.67;101126.97;5029474;28;51300;-58
2021/09/26 07:21:05;;;;;;;;;13.00;10.75;;;;;23.07;53.81;101115.91;5023556;28;51128;-61
2021/09/26 07:23:30;;;;;;;;;9.50;8.75;;;;;;;;5026136;28;51197;-63
2021/09/26 07:25:56;;;;;;;;;14.25;11.50;;;;;;;;5031167;28;51778;-63
2021/09/26 07:28:21;;;;;;;;;9.75;9.50;;;;;23.10;54.14;101109.06;5026516;28;51129;-63
2021/09/26 07:30:46;;;;;;;;;12.75;11.00;;;;;23.11;53.99;101116.28;5024324;28;51337;-65
2021/09/26 07:33:12;;;;;;;;;13.25;11.75;;;;;23.13;53.88;101117.72;5021654;28;51187;-63
2021/09/26 07:35:37;;;;;;;;;10.50;10.50;;;;;23.14;54.13;101119.44;5024332;28;51721;-60
2021/09/26 07:38:02;;;;;;;;;11.25;11.00;;;;;23.16;54.07;101124.72;5018437;28;51189;-62
2021/09/26 07:40:28;;;;;;;;;16.50;11.25;;;;;23.17;54.19;101126.41;5025812;28;51158;-62
2021/09/26 07:42:53;;;;;;;;;10.00;10.00;;;;;23.19;53.92;101135.28;5026170;28;51254;-62
2021/09/26 07:45:19;;;;;;;;;8.75;8.00;;;;;23.21;54.04;101133.13;5024844;28;51821;-63
2021/09/26 07:47:45;;;;;;;;;11.50;10.00;;;;;23.23;54.07;101140.09;5026814;28;51179;-63
2021/09/26 07:50:11;;;;;;;;;10.50;9.25;;;;;23.23;54.05;101151.16;5021118;28;51145;-64
2021/09/26 07:52:37;;;;;;;;;9.25;9.25;;;;;23.24;53.91;101158.41;5028383;28;50977;-62
2021/09/26 07:55:05;;;;;;;;;10.00;9.50;;;;;23.24;54.04;101152.00;5029037;28;52158;-61
2021/09/26 07:57:30;;;;;;;;;11.75;9.00;;;;;23.27;54.42;101152.41;5024183;28;52163;-59
2021/09/26 07:59:55;;;;;;;;;9.25;9.25;;;;;23.29;54.14;101152.16;5025953;28;51584;-60
2021/09/26 08:02:21;;;;;;;;;8.75;6.50;;;;;23.31;54.15;101166.59;5027517;28;51292;-62
2021/09/26 08:04:46;;;;;;;;;14.25;10.75;;;;;23.32;53.86;101159.97;5024452;28;51221;-66
2021/09/26 08:07:12;;;;;;;;;12.00;9.50;;;;;23.35;53.71;101162.31;5027131;28;51241;-62
2021/09/26 08:09:39;;;;;;;;;9.75;9.00;;;;;23.37;54.39;101164.81;5030583;28;51105;-61
2021/09/26 08:12:07;;;;;;;;;17.00;9.25;;;;;23.38;54.13;101170.13;5023469;28;51154;-61
2021/09/26 08:14:33;;;;;;;;;13.00;11.50;;;;;23.40;54.02;101167.13;5022149;28;51112;-61
2021/09/26 08:16:58;;;;;;;;;13.75;10.00;;;;;23.42;54.09;101171.31;5025761;28;51232;-66
2021/09/26 08:19:25;;;;;;;;;9.50;9.25;;;;;23.43;53.96;101170.25;5023353;28;51400;-64
2021/09/26 08:21:51;;;;;;;;;7.75;7.75;;;;;23.45;53.82;101170.03;5028692;28;51129;-66
2021/09/26 08:24:17;;;;;;;;;11.75;10.50;;;;;23.47;54.18;101167.88;5029506;28;51730;-65
2021/09/26 08:26:42;;;;;;;;;12.00;10.00;;;;;23.47;53.93;101171.47;5030721;28;51218;-65
2021/09/26 08:29:08;;;;;;;;;13.75;10.50;;;;;23.48;53.67;101164.03;5024495;28;51156;-64
2021/09/26 08:31:33;;;;;;;;;13.25;10.25;;;;;23.50;53.86;101165.47;5029607;28;51361;-66
2021/09/26 08:33:59;;;;;;;;;11.75;10.25;;;;;23.51;53.39;101169.91;5019927;28;51958;-65
2021/09/26 08:36:25;;;;;;;;;14.50;12.00;;;;;23.52;53.82;101173.53;5027860;28;51190;-66
2021/09/26 08:38:50;;;;;;;;;16.50;11.25;;;;;23.54;53.84;101177.75;5026329;28;51240;-63
2021/09/26 08:41:16;;;;;;;;;8.25;8.00;;;;;23.55;54.10;101178.56;5031826;28;51083;-66
2021/09/26 08:43:42;;;;;;;;;9.00;9.00;;;;;23.56;53.93;101177.53;5024726;28;52705;-65
2021/09/26 08:46:12;;;;;;;;;13.50;10.25;;;;;23.56;54.40;101188.59;5025106;28;51260;-64
2021/09/26 08:48:38;;;;;;;;;12.75;9.25;;;;;23.56;54.07;101180.28;5028969;28;51126;-64
2021/09/26 08:51:04;;;;;;;;;15.25;11.50;;;;;23.55;54.16;101182.22;5024791;28;51408;-64
2021/09/26 08:53:29;;;;;;;;;14.00;11.75;;;;;23.58;54.58;101186.44;5028417;28;51639;-65
2021/09/26 08:55:57;;;;;;;;;10.50;9.75;;;;;23.58;54.34;101184.53;5022052;28;51245;-65
2021/09/26 08:58:22;;;;;;;;;13.50;12.00;;;;;23.61;54.55;101178.53;5022862;28;51137;-65
2021/09/26 09:00:48;;;;;;;;;9.75;6.75;;;;;23.64;54.28;101184.66;5028262;28;51307;-65
2021/09/26 09:03:14;;;;;;;;;14.00;11.25;;;;;23.66;54.72;101179.75;5023444;28;51440;-66
2021/09/26 09:05:40;;;;;;;;;16.00;12.00;;;;;23.67;54.59;101170.38;5024283;28;51371;-65
2021/09/26 09:08:09;;;;;;;;;13.50;9.75;;;;;23.71;54.23;101177.97;5025514;28;51172;-65
2021/09/26 09:10:40;;;;;;;;;13.75;12.75;;;;;23.75;54.28;101178.31;5025643;28;51109;-64
2021/09/26 09:13:06;;;;;;;;;13.75;12.25;;;;;23.76;54.22;101172.56;5030425;28;52371;-63
2021/09/26 09:15:32;;;;;;;;;13.75;12.75;;;;;23.80;53.82;101182.06;5021573;28;51289;-64
2021/09/26 09:18:02;;;;;;;;;15.50;14.50;;;;;23.81;53.88;101172.69;5024720;28;51208;-64
2021/09/26 09:20:30;;;;;;;;;12.00;11.00;;;;;23.85;53.58;101173.06;5014165;28;51008;-65
2021/09/26 09:22:57;;;;;;;;;18.75;11.50;;;;;23.86;53.73;101172.84;5014171;28;52083;-64
2021/09/26 09:25:47;;;;;;;;;12.50;11.25;;;;;23.91;53.53;101172.13;5015955;28;51040;-65
2021/09/26 09:28:15;;;;;;;;;14.50;11.25;;;;;23.95;53.53;101169.72;5023865;28;50973;-65
2021/09/26 09:31:01;;;;;;;;;20.75;13.00;;;;;23.99;53.22;101173.72;5043334;28;51353;-63
2021/09/26 09:33:41;;;;;;;;;16.00;14.50;;;;;24.00;53.12;101173.47;5050172;28;52760;-64
2021/09/26 09:36:35;;;;;;;;;13.00;12.75;;;;;24.01;53.61;101177.91;5027182;28;51040;-64
2021/09/26 09:39:08;;;;;;;;;10.00;10.00;;;;;24.03;53.06;101183.22;5011687;28;51227;-64
2021/09/26 09:41:42;;;;;;;;;13.00;10.50;;;;;24.03;53.17;101185.97;5024103;28;51178;-64
2021/09/26 09:44:10;;;;;;;;;10.00;9.00;;;;;24.04;53.04;101179.34;5028664;28;51166;-64
2021/09/26 09:46:45;;;;;;;;;11.50;11.50;;;;;24.02;52.89;101179.59;5036937;28;51090;-65
2021/09/26 09:49:11;;;;;;;;;9.25;9.25;;;;;24.03;52.82;101174.91;5016993;28;51163;-65
2021/09/26 09:51:47;;;;;;;;;11.25;11.25;;;;;24.04;53.00;101171.91;5019755;28;51327;-64
2021/09/26 09:54:12;;;;;;;;;17.25;13.00;;;;;24.05;52.77;101179.09;5028370;28;51959;-65
2021/09/26 09:56:43;;;;;;;;;12.00;10.25;;;;;24.05;52.78;101181.88;5023982;28;50998;-64
2021/09/26 09:59:10;;;;;;;;;14.25;13.00;;;;;24.06;52.56;101174.41;5027834;28;51326;-63
2021/09/26 10:01:39;;;;;;;;;13.00;11.00;;;;;24.07;52.39;101176.97;5047617;28;50988;-63
2021/09/26 10:04:12;;;;;;;;;12.25;10.75;;;;;24.09;52.75;101182.25;5035602;28;52784;-63
2021/09/26 10:06:40;;;;;;;;;14.00;12.50;;;;;24.07;52.75;101176.97;5032295;28;51128;-63
2021/09/26 10:09:17;;;;;;;;;14.50;11.75;;;;;24.08;52.46;101178.66;5035973;28;51081;-63
2021/09/26 10:11:58;;;;;;;;;12.25;11.50;;;;;24.07;52.26;101182.50;5026797;28;51124;-64
2021/09/26 10:14:29;;;;;;;;;10.00;10.00;;;;;24.05;52.62;101181.88;5029254;28;51750;-63
2021/09/26 10:16:56;;;;;;;;;12.75;11.00;;;;;24.05;52.17;101179.09;5035482;28;51521;-64
2021/09/26 10:19:24;;;;;;;;;11.50;10.50;;;;;24.04;52.36;101184.88;5035568;28;51181;-63
2021/09/26 10:21:55;;;;;;;;;11.00;11.00;;;;;24.02;52.72;101185.13;5036161;28;51092;-63
2021/09/26 10:24:22;;;;;;;;;12.75;9.50;;;;;24.04;52.42;101193.19;5029082;28;51755;-63
2021/09/26 10:26:49;;;;;;;;;11.75;10.50;;;;;24.02;52.66;101178.75;5021348;28;51208;-64
2021/09/26 10:29:17;;;;;;;;;13.75;12.00;;;;;24.01;52.41;101183.44;5022720;28;51386;-64
2021/09/26 10:31:46;;;;;;;;;12.75;12.75;;;;;24.00;52.43;101181.75;5043211;28;51025;-64
2021/09/26 10:34:12;;;;;;;;;13.25;11.75;;;;;24.01;52.31;101183.44;5037641;28;52128;-65
2021/09/26 10:36:40;;;;;;;;;12.75;10.50;;;;;24.00;52.31;101181.75;5034238;28;51087;-64
2021/09/26 10:39:07;;;;;;;;;9.25;9.25;;;;;24.00;52.37;101179.00;5035911;28;51021;-64
2021/09/26 10:41:32;;;;;;;;;12.50;11.00;;;;;23.99;52.22;101180.09;5034918;28;51164;-63
2021/09/26 10:44:22;;;;;;;;;11.00;10.25;;;;;23.99;52.66;101185.63;5032051;28;51796;-65
2021/09/26 10:47:25;;;;;;;;;11.00;10.00;;;;;23.99;52.12;101180.09;5028074;28;51092;-65
2021/09/26 10:50:01;;;;;;;;;11.25;11.00;;;;;23.98;52.43;101181.16;5033063;28;51175;-59
2021/09/26 10:52:35;;;;;;;;;11.50;10.50;;;;;23.98;52.43;101175.63;5032820;28;51086;-59
2021/09/26 10:55:18;;;;;;;;;12.00;10.50;;;;;23.99;52.44;101182.00;5026397;28;51198;-60
2021/09/26 10:57:46;;;;;;;;;12.50;10.25;;;;;23.98;52.29;101183.94;5025779;28;51120;-60
2021/09/26 11:00:36;;;;;;;;;13.00;12.00;;;;;23.97;52.41;101186.91;5022123;28;51059;-59
2021/09/26 11:03:10;;;;;;;;;14.00;11.75;;;;;23.97;52.61;101175.84;5036366;28;51081;-60
2021/09/26 11:05:39;;;;;;;;;11.75;9.75;;;;;23.97;52.45;101170.31;5035576;28;51114;-59
2021/09/26 11:08:08;;;;;;;;;13.25;13.00;;;;;23.96;52.47;101175.00;5016806;28;51331;-59
2021/09/26 11:10:46;;;;;;;;;13.00;12.00;;;;;23.96;52.40;101175.00;5014625;28;51022;-60
2021/09/26 11:13:21;;;;;;;;;16.50;12.25;;;;;23.97;52.56;101170.31;5023711;28;51269;-59
2021/09/26 11:16:12;;;;;;;;;13.00;11.00;;;;;23.97;52.27;101159.25;5035281;28;51918;-57